Česky Dansk Deutsch English Español Suomi Français Magyar Italiano Nederlands norsk Polski Português svenska Türkçe

 

Het Weer

Hohenfels (Duitsland)

05:58, 22 augustus 2016 (GMT)

NWNNE
WE
SWSSE
Home            
Hohenfels Kuemmersruck Roth Grafenwoehr Ingolstadt Nuernberg Neuburg / Donau Bayreuth Ansbach / Katterbach Munchen Erding Illesheim Augsburg Fuerstenfeldbruck Hof Kitzingen Usa \ Af Oberpfaffenhofen Karlovy Vary Lechfeld Niederstetten Giebelstadt Landsberg Altenstadt

Om een weerknop op uw website of weblog te plaatsen, copieer onderstaande code en plak die in uw pagina. In het eerste vakje staat HTML-code, in het tweede vakje UBB-code.


Add to Google

Details

Wind speed:2 bf, 4 kn, 2.1 m/s, 4.6 miles/h, 7.4 km/h
Wind direction:W, 270°
Visibility:Greater than 10000 m, 10 km, 32800 ft, 6.2 miles
Clouds:Geschlossene Wolkendecke at 2200 ft, 671 m
Temperature:13°C, 55°F
Dew-point:11°C, 52°F
Atmospheric pressure:1028 hPa, 770.9 mmHg, 30.35 inHg, 1.014 atm
Relative humidity:87.6 %
METAR:ETIH 220558Z AUTO 27004KT 9999 OVC022 13/11 A3035 RMK AO2 SLP274 52014

Snelkoppelingen

Actuele weersinformatie van de hele wereld. Voeg locaties toe met het plus (+) symbool. Deze snelkoppelingen kunnen worden toegevoegd aan Google.

Lid van de Technetium groep

website free tracking
StatCounter NetStat W3C Validator

19-01-2021 06:41:01
astro.technetium.be money.technetium.be phote.technetium.be tafeltennistafel.technetium.be www.ligfiets.net